Stevens Point, WI

7:05 AM CST on December 09, 2019 (GMT -0600)
Stevens Point Municipal

Weather History for KSTE - October, 2019

Change the Weather History Date:

Sunday, October 27, 2019

  Actual Average Record
Temperature  
Mean Temperature 40 °F -  
Max Temperature 54 °F 55 °F 76 °F (1989)
Min Temperature 26 °F 36 °F 18 °F (1976)
Degree Days  
Heating Degree Days 25    
Moisture  
Dew Point 32 °F    
Average Humidity 74    
Maximum Humidity 100    
Minimum Humidity 39    
Precipitation  
Precipitation 0.00 in - - ()
Sea Level Pressure  
Sea Level Pressure 29.82 in    
Wind  
Wind Speed 4 mph (WNW)    
Max Wind Speed 10 mph    
Max Gust Speed 18 mph    
Visibility 10 miles    
Events      
Averages and records for this station are not official NWS values.
T = Trace of Precipitation, MM = Missing Value Source: NWS Daily Summary

Daily Weather History Graph

Daily Weather History Graph

Search for Another Location

Airport or City:

Astronomy

Oct. 27, 2019 Rise Set
Actual Time 7:28 AM CDT 5:54 PM CDT
Civil Twilight 6:58 AM CDT 6:24 PM CDT
Nautical Twilight 6:24 AM CDT 6:58 PM CDT
Astronomical Twilight 5:50 AM CDT 7:32 PM CDT
Moon 6:32 AM CDT (10/27) 6:06 PM CDT (10/27)
Length of Visible Light 11h 25m
Length of Day
10h 25m
Waning Crescent, 0% of the Moon is Illuminated
Oct 27
Waning Crescent
Oct 27
New
Nov 4
First Quarter
Nov 12
Full
Nov 19
Last Quarter

Hourly Weather History & Observations

Time (CDT) Temp. Windchill Dew Point Humidity Pressure Visibility Wind Dir Wind Speed Gust Speed Precip Events Conditions
12:15 AM 37.4 °F 34.9 °F 32.0 °F 81% 29.68 in 10.0 mi North 3.5 mph - N/A   Clear
12:35 AM 36.9 °F 32.2 °F 32.0 °F 83% 29.69 in 10.0 mi NNW 5.8 mph - N/A   Clear
12:55 AM 36.9 °F 33.1 °F 32.0 °F 83% 29.69 in 10.0 mi NNW 4.6 mph - N/A   Clear
1:15 AM 36.7 °F 32.0 °F 32.0 °F 83% 29.68 in 10.0 mi NNW 5.8 mph - N/A   Clear
1:35 AM 36.5 °F 33.9 °F 32.0 °F 84% 29.68 in 10.0 mi NNW 3.5 mph - N/A   Clear
1:55 AM 36.0 °F 33.3 °F 32.0 °F 86% 29.67 in 10.0 mi NNW 3.5 mph - N/A   Clear
2:15 AM 36.0 °F 31.1 °F 32.0 °F 86% 29.68 in 10.0 mi NW 5.8 mph - N/A   Clear
2:35 AM 35.6 °F 30.7 °F 32.0 °F 87% 29.67 in 10.0 mi NW 5.8 mph - N/A   Clear
2:55 AM 34.9 °F 29.9 °F 31.8 °F 89% 29.67 in 10.0 mi NW 5.8 mph - N/A   Clear
3:15 AM 34.7 °F 30.6 °F 31.6 °F 89% 29.68 in 10.0 mi NW 4.6 mph - N/A   Clear
3:35 AM 34.5 °F 30.4 °F 31.8 °F 90% 29.68 in 10.0 mi NW 4.6 mph - N/A   Clear
3:55 AM 33.8 °F 30.8 °F 32.0 °F 93% 29.68 in 10.0 mi NW 3.5 mph - N/A   Clear
4:15 AM 33.4 °F 30.4 °F 32.0 °F 94% 29.69 in 10.0 mi WNW 3.5 mph - N/A   Clear
4:35 AM 32.5 °F - 32.0 °F 98% 29.69 in 10.0 mi Calm Calm - N/A   Clear
4:55 AM 28.4 °F - 28.4 °F 100% 29.70 in 7.0 mi Calm Calm - N/A   Clear
5:15 AM 27.3 °F - 27.3 °F 100% 29.70 in 5.0 mi Calm Calm - N/A   Clear
5:35 AM 26.4 °F - 26.4 °F 100% 29.71 in 1.2 mi Calm Calm - N/A   Mist
5:55 AM 26.8 °F - 26.8 °F 100% 29.72 in 7.0 mi Calm Calm - N/A   Clear
6:15 AM 29.8 °F - 29.8 °F 100% 29.74 in 7.0 mi Calm Calm - N/A   Clear
6:35 AM 30.9 °F - 30.9 °F 100% 29.75 in 10.0 mi Calm Calm - N/A   Clear
6:55 AM 31.1 °F - 31.1 °F 100% 29.76 in 10.0 mi Calm Calm - N/A   Clear
7:15 AM 26.8 °F - 26.8 °F 100% 29.75 in 3.0 mi Calm Calm - N/A   Clear
7:35 AM 28.8 °F - 28.8 °F 100% 29.79 in 5.0 mi Calm Calm - N/A   Clear
7:55 AM 31.1 °F 27.7 °F 31.1 °F 100% 29.78 in 7.0 mi West 3.5 mph - N/A   Clear
8:15 AM 32.0 °F 27.5 °F 32.0 °F 100% 29.80 in 10.0 mi West 4.6 mph - N/A   Clear
8:35 AM 33.1 °F 30.0 °F 32.0 °F 96% 29.80 in 10.0 mi West 3.5 mph - N/A   Clear
8:55 AM 34.7 °F - 32.0 °F 90% 29.81 in 10.0 mi Calm Calm - N/A   Clear
9:15 AM 36.3 °F 32.5 °F 32.0 °F 84% 29.80 in 10.0 mi West 4.6 mph - N/A   Clear
9:35 AM 38.3 °F - 31.3 °F 76% 29.80 in 10.0 mi Calm Calm - N/A   Clear
9:55 AM 39.7 °F 37.6 °F 30.9 °F 71% 29.81 in 10.0 mi WNW 3.5 mph - N/A   Clear
10:15 AM 41.9 °F 38.2 °F 30.9 °F 65% 29.82 in 10.0 mi West 5.8 mph - N/A   Clear
10:35 AM 43.0 °F 38.8 °F 30.9 °F 62% 29.83 in 10.0 mi West 6.9 mph - N/A   Clear
10:55 AM 43.9 °F 39.3 °F 31.1 °F 61% 29.84 in 10.0 mi West 8.1 mph - N/A   Clear
11:15 AM 45.1 °F 40.8 °F 30.7 °F 57% 29.84 in 10.0 mi West 8.1 mph - N/A   Clear
11:35 AM 46.4 °F 42.9 °F 30.7 °F 54% 29.84 in 10.0 mi WSW 6.9 mph - N/A   Clear
11:55 AM 47.3 °F - 30.2 °F 52% 29.84 in 10.0 mi WSW 6.9 mph - N/A   Clear
12:15 PM 48.4 °F - 30.6 °F 50% 29.84 in 10.0 mi WSW 5.8 mph - N/A   Clear
12:35 PM 49.6 °F - 29.8 °F 47% 29.83 in 10.0 mi WSW 6.9 mph - N/A   Clear
12:55 PM 50.4 °F - 29.3 °F 44% 29.82 in 10.0 mi West 5.8 mph - N/A   Clear
1:15 PM 51.8 °F - 28.9 °F 41% 29.81 in 10.0 mi West 5.8 mph - N/A   Clear
1:35 PM 52.7 °F - 28.9 °F 40% 29.83 in 10.0 mi West 6.9 mph - N/A   Clear
1:55 PM 53.1 °F - 28.4 °F 39% 29.83 in 10.0 mi West 9.2 mph 18.4 mph N/A   Clear
2:15 PM 53.6 °F - 29.7 °F 40% 29.84 in 10.0 mi West 9.2 mph 16.1 mph N/A   Clear
2:35 PM 54.1 °F - 30.9 °F 41% 29.84 in 10.0 mi West 8.1 mph - N/A   Clear
2:55 PM 53.6 °F - 31.1 °F 42% 29.84 in 10.0 mi WNW 10.4 mph 16.1 mph N/A   Clear
3:15 PM 53.8 °F - 32.0 °F 44% 29.85 in 10.0 mi WNW 9.2 mph - N/A   Clear
3:35 PM 53.6 °F - 32.0 °F 44% 29.86 in 10.0 mi West 10.4 mph 17.3 mph N/A   Clear
3:55 PM 52.7 °F - 32.2 °F 46% 29.87 in 10.0 mi West 9.2 mph - N/A   Clear
4:15 PM 52.2 °F - 32.2 °F 47% 29.87 in 10.0 mi WNW 10.4 mph 16.1 mph N/A   Clear
4:35 PM 51.4 °F - 32.2 °F 48% 29.87 in 10.0 mi West 6.9 mph - N/A   Clear
4:55 PM 50.7 °F - 33.8 °F 52% 29.87 in 10.0 mi WNW 5.8 mph - N/A   Clear
5:15 PM 50.0 °F - 33.6 °F 53% 29.88 in 10.0 mi WNW 9.2 mph - N/A   Clear
5:35 PM 49.1 °F - 34.2 °F 56% 29.89 in 10.0 mi WNW 5.8 mph - N/A   Clear
5:55 PM 48.0 °F - 34.3 °F 59% 29.90 in 10.0 mi WNW 6.9 mph - N/A   Clear
6:15 PM 46.8 °F - 35.6 °F 65% 29.91 in 10.0 mi NW 3.5 mph - N/A   Clear
6:35 PM 45.9 °F 44.6 °F 35.6 °F 67% 29.91 in 10.0 mi NW 3.5 mph - N/A   Clear
6:55 PM 45.1 °F 43.7 °F 35.2 °F 68% 29.92 in 10.0 mi WNW 3.5 mph - N/A   Clear
7:15 PM 44.6 °F 43.1 °F 35.2 °F 70% 29.91 in 10.0 mi WNW 3.5 mph - N/A   Scattered Clouds
7:35 PM 43.9 °F 40.5 °F 35.2 °F 72% 29.92 in 10.0 mi WNW 5.8 mph - N/A   Clear
7:55 PM 43.2 °F 39.7 °F 35.6 °F 75% 29.93 in 10.0 mi NW 5.8 mph - N/A   Clear
8:15 PM 42.4 °F - 35.6 °F 77% 29.93 in 10.0 mi Calm Calm - N/A   Clear
8:35 PM 41.9 °F 40.0 °F 35.6 °F 78% 29.93 in 10.0 mi West 3.5 mph - N/A   Clear
8:55 PM 41.0 °F 39.0 °F 35.1 °F 79% 29.93 in 10.0 mi WNW 3.5 mph - N/A   Clear
9:15 PM 40.6 °F 37.5 °F 35.1 °F 80% 29.93 in 10.0 mi WNW 4.6 mph - N/A   Clear
9:35 PM 39.9 °F - 34.7 °F 82% 29.94 in 10.0 mi Calm Calm - N/A   Clear
9:55 PM 39.2 °F 37.0 °F 34.5 °F 83% 29.94 in 10.0 mi WNW 3.5 mph - N/A   Clear
10:15 PM 38.5 °F - 34.3 °F 85% 29.95 in 10.0 mi Calm Calm - N/A   Clear
10:35 PM 37.9 °F 35.5 °F 34.2 °F 86% 29.96 in 10.0 mi West 3.5 mph - N/A   Clear
10:55 PM 37.4 °F - 34.0 °F 87% 29.96 in 10.0 mi Calm Calm - N/A   Scattered Clouds
11:15 PM 37.6 °F 35.1 °F 33.8 °F 86% 29.96 in 10.0 mi West 3.5 mph - N/A   Scattered Clouds
11:35 PM 37.6 °F 35.1 °F 33.8 °F 86% 29.96 in 10.0 mi WNW 3.5 mph - N/A   Scattered Clouds
11:55 PM 38.3 °F 33.9 °F 33.8 °F 84% 29.97 in 10.0 mi West 5.8 mph - N/A   Overcast